Amberobe, Madagascar

66°F / 19°C
Scattered Clouds
Humidity: 88%
Dew Point: 63°F / 17°C
Wind: East at 8 mph / 13 km/h
Pressure: 30.12 in / 1020 hPa (Steady)
Visibility: 6.2 miles / 10.0 kilometers
Clouds: (FEW) : 1700 ft / 518 m
Scattered Clouds (SCT) : 2000 ft / 609 m
Yesterday's Maximum: 84°F / 29°C
Yesterday's Minimum: 63°F / 17°C approx.
Yesterday's Cooling Degree Days: 8 approx.
UV: 0 out of 16
Sunrise:5:42 AM EAT
Sunset:6:21 PM EAT
Moon Rise:5:31 PM EAT
Moon Set:4:04 AM EAT
Moon Phase Waxing Gibbous
NOAA Weather Radio
No local feed.
METAR FMMI 172100Z 10007KT 9999 FEW017 SCT020 19/17 Q1020 NOSIG
As of: 12:00 AM EAT on February 18, 2019
Observed at: Antananarivo, Madagascar

View Station's History

Local Satellite

Current Satellite Forecast
Region Default Local
No Yes

View Full Screen WunderMap

Forecast

Current Satellite Forecast
Sunday
. High: 84° F. / 28° C.

. High: 66° F. / 18° C.

Features

Weather Apps

WunderRadio

Weather Underground Apps
Check out our wide variety of mobile and setup applications.

Weather Underground Applications

Top of Page

© Copyright 2019
The Weather Company, LLC